createdAt,value
2023-03-26T00:02:51.189Z,100.00
2023-03-26T00:06:12.820Z,100.00
2023-03-26T00:09:16.952Z,100.00
2023-03-26T00:12:19.068Z,100.00
2023-03-26T00:15:21.052Z,100.00
2023-03-26T00:18:25.099Z,100.00
2023-03-26T00:21:29.457Z,100.00
2023-03-26T00:24:31.635Z,100.00
2023-03-26T00:27:34.370Z,100.00
2023-03-26T00:30:36.577Z,100.00
2023-03-26T00:33:40.901Z,100.00
2023-03-26T00:36:44.049Z,100.00
2023-03-26T00:39:49.190Z,100.00
2023-03-26T00:42:51.276Z,100.00
2023-03-26T00:45:55.442Z,100.00
2023-03-26T00:48:59.096Z,100.00
2023-03-26T00:52:03.141Z,100.00
2023-03-26T00:55:05.520Z,100.00
2023-03-26T00:58:12.910Z,100.00
2023-03-26T01:01:19.166Z,100.00
2023-03-26T01:04:31.931Z,100.00
2023-03-26T01:07:35.330Z,100.00
2023-03-26T01:10:40.167Z,100.00
2023-03-26T01:13:49.612Z,100.00
2023-03-26T01:16:55.142Z,100.00
2023-03-26T01:20:20.132Z,100.00
2023-03-26T01:23:24.782Z,100.00
2023-03-26T01:26:38.918Z,100.00
2023-03-26T01:29:44.266Z,100.00
2023-03-26T01:32:58.202Z,100.00
2023-03-26T01:36:32.542Z,100.00
2023-03-26T01:39:53.452Z,100.00
2023-03-26T01:43:04.983Z,100.00
2023-03-26T01:46:09.915Z,100.00
2023-03-26T01:49:13.633Z,100.00
2023-03-26T01:52:20.101Z,100.00
2023-03-26T01:55:28.398Z,100.00
2023-03-26T01:58:44.674Z,100.00
2023-03-26T02:02:14.425Z,100.00
2023-03-26T02:05:31.789Z,100.00
2023-03-26T02:08:39.817Z,100.00
2023-03-26T02:11:43.567Z,100.00
2023-03-26T02:14:46.176Z,100.00
2023-03-26T02:17:49.741Z,100.00
2023-03-26T02:20:55.881Z,100.00
2023-03-26T02:24:03.030Z,100.00
2023-03-26T02:27:07.976Z,100.00
2023-03-26T02:30:15.120Z,100.00
2023-03-26T02:33:17.442Z,100.00
2023-03-26T02:36:22.170Z,100.00
2023-03-26T02:39:25.469Z,100.00
2023-03-26T02:42:27.955Z,100.00
2023-03-26T02:45:30.035Z,100.00
2023-03-26T02:48:34.777Z,100.00
2023-03-26T02:51:37.581Z,100.00
2023-03-26T02:54:39.620Z,100.00
2023-03-26T02:57:41.601Z,100.00
2023-03-26T03:00:46.949Z,100.00
2023-03-26T03:03:49.160Z,100.00
2023-03-26T03:06:53.172Z,100.00
2023-03-26T03:09:55.394Z,100.00
2023-03-26T03:12:57.548Z,100.00
2023-03-26T03:15:59.613Z,100.00
2023-03-26T03:19:01.981Z,100.00
2023-03-26T03:22:04.172Z,100.00
2023-03-26T03:25:09.218Z,100.00
2023-03-26T03:28:13.961Z,100.00
2023-03-26T03:31:17.626Z,100.00
2023-03-26T03:34:19.834Z,100.00
2023-03-26T03:37:22.030Z,100.00
2023-03-26T03:40:24.512Z,100.00
2023-03-26T03:43:27.654Z,100.00
2023-03-26T03:46:29.941Z,100.00
2023-03-26T03:49:32.169Z,100.00
2023-03-26T03:52:34.198Z,100.00
2023-03-26T03:55:38.394Z,100.00
2023-03-26T03:58:41.182Z,100.00
2023-03-26T04:01:46.853Z,100.00
2023-03-26T04:04:50.406Z,100.00
2023-03-26T04:07:52.570Z,100.00
2023-03-26T04:10:54.643Z,100.00
2023-03-26T04:13:56.796Z,100.00
2023-03-26T04:16:58.905Z,100.00
2023-03-26T04:20:14.606Z,100.00
2023-03-26T04:23:18.647Z,100.00
2023-03-26T04:26:20.838Z,100.00
2023-03-26T04:29:25.841Z,100.00
2023-03-26T04:32:30.576Z,100.00
2023-03-26T04:35:37.124Z,100.00
2023-03-26T04:38:45.716Z,100.00
2023-03-26T04:41:48.713Z,100.00
2023-03-26T04:44:51.039Z,100.00
2023-03-26T04:47:53.157Z,100.00
2023-03-26T04:50:56.603Z,100.00
2023-03-26T04:54:00.277Z,100.00
2023-03-26T04:57:08.604Z,100.00
2023-03-26T05:00:16.588Z,100.00
2023-03-26T05:03:21.188Z,100.00
2023-03-26T05:06:23.444Z,100.00
2023-03-26T05:09:29.323Z,100.00
2023-03-26T05:12:31.409Z,100.00
2023-03-26T05:15:33.456Z,100.00
2023-03-26T05:18:35.514Z,100.00
2023-03-26T05:21:37.999Z,100.00
2023-03-26T05:24:40.050Z,100.00
2023-03-26T05:27:42.143Z,100.00
2023-03-26T05:30:44.776Z,100.00
2023-03-26T05:33:48.693Z,100.00
2023-03-26T05:36:50.919Z,100.00
2023-03-26T05:39:55.024Z,100.00
2023-03-26T05:42:57.193Z,100.00
2023-03-26T05:45:59.409Z,100.00
2023-03-26T05:49:01.524Z,100.00
2023-03-26T05:52:04.019Z,100.00
2023-03-26T05:55:06.736Z,100.00
2023-03-26T05:58:08.820Z,100.00
2023-03-26T06:01:17.012Z,100.00
2023-03-26T06:04:19.608Z,100.00
2023-03-26T06:07:21.844Z,100.00
2023-03-26T06:10:24.874Z,100.00
2023-03-26T06:13:27.254Z,100.00
2023-03-26T06:16:29.444Z,100.00
2023-03-26T06:19:31.758Z,100.00
2023-03-26T06:22:33.751Z,100.00
2023-03-26T06:25:37.588Z,100.00
2023-03-26T06:28:39.745Z,100.00
2023-03-26T06:31:42.263Z,100.00
2023-03-26T06:34:44.372Z,100.00
2023-03-26T06:37:46.644Z,99.32
2023-03-26T06:40:50.497Z,98.61
2023-03-26T06:43:53.023Z,97.31
2023-03-26T06:46:55.081Z,96.35
2023-03-26T06:49:57.094Z,95.28
2023-03-26T06:52:59.275Z,94.18
2023-03-26T06:56:02.913Z,91.87
2023-03-26T06:59:05.157Z,90.69
2023-03-26T07:02:07.714Z,87.85
2023-03-26T07:05:10.025Z,86.19
2023-03-26T07:08:12.115Z,84.36
2023-03-26T07:11:14.458Z,85.02
2023-03-26T07:14:16.554Z,89.37
2023-03-26T07:17:18.870Z,87.55
2023-03-26T07:20:21.656Z,86.26
2023-03-26T07:23:24.135Z,86.35
2023-03-26T07:26:41.420Z,87.33
2023-03-26T07:29:59.475Z,85.68
2023-03-26T07:33:10.084Z,84.18
2023-03-26T07:36:28.833Z,83.04
2023-03-26T07:39:52.485Z,82.08
2023-03-26T07:43:29.107Z,82.59
2023-03-26T07:46:35.061Z,79.63
2023-03-26T07:49:38.364Z,79.93
2023-03-26T07:52:41.004Z,78.89
2023-03-26T07:55:58.365Z,80.17
2023-03-26T07:59:18.488Z,80.43
2023-03-26T08:02:45.518Z,82.35
2023-03-26T08:06:02.018Z,81.91
2023-03-26T08:09:32.745Z,82.72
2023-03-26T08:12:58.222Z,82.79
2023-03-26T08:16:35.754Z,82.68
2023-03-26T08:19:49.387Z,81.97
2023-03-26T08:23:00.627Z,81.40
2023-03-26T08:26:31.705Z,79.36
2023-03-26T08:29:36.776Z,77.51
2023-03-26T08:32:39.160Z,76.36
2023-03-26T08:35:42.722Z,74.47
2023-03-26T08:38:46.834Z,73.85
2023-03-26T08:42:17.022Z,72.13
2023-03-26T08:45:37.444Z,69.75
2023-03-26T08:49:33.407Z,68.94
2023-03-26T08:53:09.580Z,68.20
2023-03-26T08:56:35.177Z,68.71
2023-03-26T08:59:46.318Z,68.25
2023-03-26T09:03:20.449Z,69.19
2023-03-26T09:06:41.238Z,70.22
2023-03-26T09:09:52.500Z,69.34
2023-03-26T09:13:26.628Z,69.67
2023-03-26T09:16:34.769Z,70.86
2023-03-26T09:20:00.040Z,70.61
2023-03-26T09:23:07.902Z,70.13
2023-03-26T09:26:15.945Z,70.29
2023-03-26T09:29:23.855Z,69.63
2023-03-26T09:32:46.737Z,69.83
2023-03-26T09:36:18.668Z,70.35
2023-03-26T09:39:30.107Z,69.56
2023-03-26T09:42:45.876Z,69.76
2023-03-26T09:45:59.823Z,70.65
2023-03-26T09:49:35.981Z,70.69
2023-03-26T09:53:27.467Z,71.03
2023-03-26T09:56:51.478Z,70.20
2023-03-26T10:00:22.972Z,69.18
2023-03-26T10:03:38.480Z,69.78
2023-03-26T10:06:52.470Z,69.62
2023-03-26T10:10:02.672Z,69.80
2023-03-26T10:13:26.337Z,69.74
2023-03-26T10:16:50.178Z,69.51
2023-03-26T10:20:22.456Z,68.59
2023-03-26T10:23:57.150Z,67.36
2023-03-26T10:27:22.545Z,64.67
2023-03-26T10:30:38.316Z,61.90
2023-03-26T10:33:49.940Z,58.56
2023-03-26T10:37:03.966Z,55.98
2023-03-26T10:40:18.208Z,52.04
2023-03-26T10:44:08.024Z,52.05
2023-03-26T10:47:29.255Z,51.93
2023-03-26T10:51:31.065Z,51.34
2023-03-26T10:54:55.269Z,50.17
2023-03-26T10:58:10.801Z,51.54
2023-03-26T11:01:36.199Z,50.35
2023-03-26T11:05:00.469Z,50.60
2023-03-26T11:08:10.001Z,51.99
2023-03-26T11:11:18.016Z,51.01
2023-03-26T11:14:41.447Z,50.55
2023-03-26T11:18:01.805Z,50.76
2023-03-26T11:21:32.392Z,51.88
2023-03-26T11:24:52.604Z,49.83
2023-03-26T11:28:11.251Z,49.92
2023-03-26T11:31:27.352Z,48.43
2023-03-26T11:34:43.109Z,46.24
2023-03-26T11:37:50.741Z,45.68
2023-03-26T11:40:57.823Z,45.09
2023-03-26T11:44:22.065Z,44.54
2023-03-26T11:47:31.260Z,44.84
2023-03-26T11:50:38.857Z,44.97
2023-03-26T11:53:46.938Z,44.34
2023-03-26T11:57:04.862Z,41.71
2023-03-26T12:00:21.587Z,39.98
2023-03-26T12:03:23.962Z,40.71
2023-03-26T12:06:27.604Z,42.04
2023-03-26T12:09:29.900Z,40.95
2023-03-26T12:12:41.829Z,41.59
2023-03-26T12:15:44.349Z,40.34
2023-03-26T12:18:58.799Z,39.47
2023-03-26T12:22:01.231Z,38.93
2023-03-26T12:25:20.864Z,41.61
2023-03-26T12:28:24.033Z,41.71
2023-03-26T12:31:26.709Z,42.77
2023-03-26T12:34:35.172Z,41.74
2023-03-26T12:37:43.319Z,41.23
2023-03-26T12:40:45.663Z,41.18
2023-03-26T12:44:54.132Z,41.68
2023-03-26T12:47:58.041Z,41.46
2023-03-26T12:51:04.033Z,41.42
2023-03-26T12:54:29.061Z,42.34
2023-03-26T12:57:41.340Z,41.55
2023-03-26T13:00:49.983Z,42.42
2023-03-26T13:04:14.371Z,41.72
2023-03-26T13:07:31.555Z,41.90
2023-03-26T13:10:44.818Z,42.24
2023-03-26T13:13:56.906Z,41.52
2023-03-26T13:17:13.442Z,40.85
2023-03-26T13:20:45.782Z,40.11
2023-03-26T13:24:16.463Z,40.39
2023-03-26T13:27:37.799Z,41.22
2023-03-26T13:31:26.655Z,42.92
2023-03-26T13:34:53.075Z,43.84
2023-03-26T13:38:04.778Z,44.23
2023-03-26T13:41:16.256Z,45.23
2023-03-26T13:44:48.869Z,45.55
2023-03-26T13:47:55.491Z,46.20
2023-03-26T13:51:09.936Z,47.27
2023-03-26T13:54:26.359Z,47.80
2023-03-26T13:58:11.947Z,47.33
2023-03-26T14:01:18.140Z,45.91
2023-03-26T14:04:26.387Z,44.58
2023-03-26T14:07:42.425Z,44.96
2023-03-26T14:10:54.136Z,45.57
2023-03-26T14:14:04.344Z,46.80
2023-03-26T14:17:21.420Z,48.68
2023-03-26T14:20:38.128Z,50.17
2023-03-26T14:23:58.631Z,50.92
2023-03-26T14:27:24.565Z,52.35
2023-03-26T14:30:50.047Z,53.09
2023-03-26T14:34:10.850Z,54.30
2023-03-26T14:37:35.704Z,55.30
2023-03-26T14:44:49.269Z,55.65
2023-03-26T14:48:34.108Z,56.32
2023-03-26T14:51:59.556Z,56.61
2023-03-26T14:59:30.039Z,57.23
2023-03-26T15:03:09.900Z,57.52
2023-03-26T15:06:14.411Z,56.68
2023-03-26T15:09:38.698Z,57.47
2023-03-26T15:13:14.281Z,57.93
2023-03-26T15:17:04.202Z,58.19
2023-03-26T15:20:32.135Z,58.44
2023-03-26T15:23:53.176Z,58.74
2023-03-26T15:27:02.201Z,58.99
2023-03-26T15:30:33.269Z,58.92
2023-03-26T15:33:58.700Z,59.54
2023-03-26T15:37:48.762Z,59.65
2023-03-26T15:41:29.217Z,59.91
2023-03-26T15:44:53.992Z,60.30
2023-03-26T15:48:12.223Z,60.12
2023-03-26T15:51:20.421Z,60.37
2023-03-26T15:54:30.480Z,60.69
2023-03-26T15:57:41.764Z,61.01
2023-03-26T16:05:03.546Z,61.45
2023-03-26T16:08:27.369Z,61.70
2023-03-26T16:15:20.592Z,62.37
2023-03-26T16:18:30.642Z,62.58
2023-03-26T16:22:15.218Z,62.57
2023-03-26T16:25:27.845Z,62.63
2023-03-26T16:28:34.676Z,62.55
2023-03-26T16:31:39.377Z,62.58
2023-03-26T16:34:58.261Z,62.83
2023-03-26T16:38:25.014Z,62.87
2023-03-26T16:41:29.653Z,62.78
2023-03-26T16:45:04.363Z,62.87
2023-03-26T16:48:44.736Z,62.99
2023-03-26T16:51:50.068Z,63.00
2023-03-26T16:55:05.537Z,63.09
2023-03-26T16:58:17.785Z,63.01
2023-03-26T17:01:56.323Z,63.23
2023-03-26T17:05:18.433Z,63.49
2023-03-26T17:08:38.392Z,63.50
2023-03-26T17:11:59.004Z,63.62
2023-03-26T17:19:20.340Z,63.95
2023-03-26T17:22:42.634Z,64.18
2023-03-26T17:26:04.454Z,64.48
2023-03-26T17:29:30.837Z,64.68
2023-03-26T17:33:04.492Z,64.54
2023-03-26T17:36:13.247Z,64.91
2023-03-26T17:39:39.924Z,64.84
2023-03-26T17:43:03.641Z,65.61
2023-03-26T17:46:41.936Z,66.03
2023-03-26T17:49:47.067Z,66.66
2023-03-26T17:53:06.786Z,67.52
2023-03-26T17:56:20.079Z,69.95
2023-03-26T17:59:27.484Z,72.58
2023-03-26T18:02:42.874Z,75.46
2023-03-26T18:05:48.526Z,75.33
2023-03-26T18:09:17.557Z,80.39
2023-03-26T18:13:02.672Z,76.70
2023-03-26T18:16:28.153Z,79.83
2023-03-26T18:19:48.043Z,78.12
2023-03-26T18:23:09.235Z,77.17
2023-03-26T18:26:20.481Z,81.23
2023-03-26T18:29:29.333Z,83.07
2023-03-26T18:32:34.234Z,84.12
2023-03-26T18:35:47.856Z,83.28
2023-03-26T18:47:31.750Z,80.47
2023-03-26T18:56:42.697Z,84.19
2023-03-26T19:26:49.428Z,91.11
2023-03-26T19:29:53.971Z,91.43
2023-03-26T19:33:12.562Z,93.39
2023-03-26T19:36:23.918Z,92.69
2023-03-26T19:39:43.342Z,93.67
2023-03-26T19:42:46.641Z,93.64
2023-03-26T19:46:00.416Z,93.91
2023-03-26T19:49:32.896Z,93.97
2023-03-26T19:52:39.098Z,94.26
2023-03-26T19:55:43.021Z,92.78
2023-03-26T19:58:46.477Z,92.63
2023-03-26T20:02:47.017Z,91.28
2023-03-26T20:05:50.346Z,91.96
2023-03-26T20:08:54.477Z,90.75
2023-03-26T20:12:00.488Z,89.16
2023-03-26T20:15:19.585Z,88.51
2023-03-26T20:18:23.059Z,89.71
2023-03-26T20:21:26.955Z,91.06
2023-03-26T20:29:24.332Z,92.40
2023-03-26T20:36:06.933Z,94.32
2023-03-26T20:39:10.278Z,94.61
2023-03-26T20:42:16.003Z,94.88
2023-03-26T20:45:21.989Z,94.95
2023-03-26T20:48:40.061Z,95.48
2023-03-26T20:51:55.752Z,95.75
2023-03-26T20:55:01.136Z,96.47
2023-03-26T20:58:04.206Z,96.41
2023-03-26T21:01:07.079Z,96.42
2023-03-26T21:04:09.498Z,97.00
2023-03-26T21:07:18.081Z,96.98
2023-03-26T21:10:26.504Z,96.69
2023-03-26T21:13:40.892Z,96.54
2023-03-26T21:16:43.507Z,96.99
2023-03-26T21:19:46.866Z,97.40
2023-03-26T21:22:49.275Z,98.08
2023-03-26T21:26:01.465Z,97.91
2023-03-26T21:29:03.912Z,98.76
2023-03-26T21:32:07.003Z,98.88
2023-03-26T21:35:10.165Z,99.31
2023-03-26T21:42:29.573Z,99.82
2023-03-26T21:45:32.262Z,100.00
2023-03-26T21:48:34.983Z,99.92
2023-03-26T21:51:43.114Z,100.00
2023-03-26T21:58:20.768Z,99.99
2023-03-26T22:01:38.311Z,100.00
2023-03-26T22:08:42.876Z,100.00
2023-03-26T22:11:45.064Z,100.00
2023-03-26T22:14:47.586Z,100.00
2023-03-26T22:17:54.187Z,100.00
2023-03-26T22:20:59.293Z,100.00
2023-03-26T22:24:04.005Z,100.00
2023-03-26T22:27:57.601Z,100.00
2023-03-26T22:31:00.008Z,100.00
2023-03-26T22:34:02.510Z,100.00
2023-03-26T22:37:05.741Z,100.00
2023-03-26T22:40:08.961Z,100.00
2023-03-26T22:43:11.545Z,100.00
2023-03-26T22:46:14.438Z,100.00
2023-03-26T22:49:17.081Z,100.00
2023-03-26T22:52:22.189Z,100.00
2023-03-26T22:59:40.177Z,100.00
2023-03-26T23:02:46.706Z,100.00
2023-03-26T23:05:59.167Z,100.00
2023-03-26T23:09:09.199Z,100.00
2023-03-26T23:23:33.416Z,100.00
2023-03-26T23:26:49.660Z,100.00
2023-03-26T23:29:53.615Z,100.00
2023-03-26T23:32:57.494Z,100.00
2023-03-26T23:36:00.838Z,100.00
2023-03-26T23:39:33.892Z,100.00
2023-03-26T23:42:37.727Z,100.00
2023-03-26T23:52:37.798Z,100.00
2023-03-26T23:55:51.502Z,100.00
2023-03-26T23:59:00.731Z,100.00
